createdAt,value
2018-03-16T00:00:17.756Z,87.43
2018-03-16T00:01:17.737Z,87.71
2018-03-16T00:02:17.727Z,88.00
2018-03-16T00:03:17.718Z,87.90
2018-03-16T00:04:17.704Z,87.81
2018-03-16T00:05:17.689Z,88.67
2018-03-16T00:06:17.686Z,89.42
2018-03-16T00:07:17.654Z,88.95
2018-03-16T00:08:17.644Z,89.52
2018-03-16T00:09:17.627Z,88.67
2018-03-16T00:10:17.613Z,88.38
2018-03-16T00:11:17.607Z,88.47
2018-03-16T00:12:17.587Z,88.57
2018-03-16T00:13:17.574Z,88.85
2018-03-16T00:14:17.568Z,89.33
2018-03-16T00:15:17.543Z,89.90
2018-03-16T00:16:17.533Z,89.52
2018-03-16T00:17:17.516Z,88.62
2018-03-16T00:18:17.503Z,88.81
2018-03-16T00:19:17.487Z,89.61
2018-03-16T00:20:17.474Z,88.43
2018-03-16T00:21:17.463Z,90.37
2018-03-16T00:22:17.454Z,89.09
2018-03-16T00:23:17.432Z,89.86
2018-03-16T00:24:17.427Z,89.86
2018-03-16T00:25:17.404Z,89.38
2018-03-16T00:26:17.390Z,90.14
2018-03-16T00:27:17.384Z,89.86
2018-03-16T00:28:17.363Z,89.86
2018-03-16T00:29:17.347Z,90.33
2018-03-16T00:30:17.337Z,89.86
2018-03-16T00:31:17.319Z,90.80
2018-03-16T00:32:17.305Z,91.09
2018-03-16T00:33:17.334Z,90.90
2018-03-16T00:34:17.277Z,90.05
2018-03-16T00:35:17.268Z,89.86
2018-03-16T00:36:17.249Z,89.86
2018-03-16T00:37:17.235Z,89.67
2018-03-16T00:38:17.228Z,89.47
2018-03-16T00:39:17.214Z,89.38
2018-03-16T00:40:17.193Z,88.62
2018-03-16T00:41:17.178Z,89.57
2018-03-16T00:42:17.165Z,88.71
2018-03-16T00:43:17.149Z,89.57
2018-03-16T00:44:17.142Z,89.47
2018-03-16T00:45:17.122Z,89.76
2018-03-16T00:46:17.109Z,91.47
2018-03-16T00:47:17.092Z,90.90
2018-03-16T00:48:17.086Z,90.90
2018-03-16T00:49:17.069Z,89.86
2018-03-16T00:50:17.051Z,89.09
2018-03-16T00:51:17.038Z,88.90
2018-03-16T00:52:17.032Z,88.43
2018-03-16T00:53:17.009Z,88.76
2018-03-16T00:54:16.994Z,88.81
2018-03-16T00:55:16.981Z,89.42
2018-03-16T00:56:16.966Z,89.90
2018-03-16T00:57:16.951Z,90.09
2018-03-16T00:58:16.947Z,89.42
2018-03-16T00:59:16.928Z,88.38
2018-03-16T01:00:16.910Z,88.09
2018-03-16T01:01:16.897Z,89.33
2018-03-16T01:02:16.886Z,89.33
2018-03-16T01:03:16.872Z,88.57
2018-03-16T01:04:16.851Z,88.38
2018-03-16T01:05:16.836Z,88.43
2018-03-16T01:06:16.823Z,88.90
2018-03-16T01:07:16.814Z,87.76
2018-03-16T01:08:16.795Z,88.34
2018-03-16T01:09:16.785Z,88.71
2018-03-16T01:10:16.765Z,88.71
2018-03-16T01:11:16.751Z,88.90
2018-03-16T01:12:16.736Z,89.19
2018-03-16T01:13:16.724Z,90.23
2018-03-16T01:14:16.709Z,90.33
2018-03-16T01:15:16.694Z,90.23
2018-03-16T01:16:16.680Z,90.33
2018-03-16T01:17:16.664Z,89.86
2018-03-16T01:18:16.650Z,89.86
2018-03-16T01:19:16.636Z,90.14
2018-03-16T01:20:16.630Z,90.23
2018-03-16T01:21:16.615Z,91.28
2018-03-16T01:22:16.592Z,90.85
2018-03-16T01:23:16.577Z,90.95
2018-03-16T01:24:16.569Z,91.66
2018-03-16T01:25:16.550Z,92.23
2018-03-16T01:26:16.537Z,92.23
2018-03-16T01:27:16.520Z,91.89
2018-03-16T01:28:16.506Z,92.99
2018-03-16T01:29:16.496Z,91.99
2018-03-16T01:30:16.477Z,91.71
2018-03-16T01:31:16.472Z,91.80
2018-03-16T01:32:16.446Z,91.24
2018-03-16T01:33:16.432Z,91.52
2018-03-16T01:34:16.420Z,92.09
2018-03-16T01:35:16.407Z,91.61
2018-03-16T01:36:16.390Z,91.52
2018-03-16T01:37:16.375Z,91.71
2018-03-16T01:38:16.368Z,91.89
2018-03-16T01:39:16.352Z,91.99
2018-03-16T01:40:16.338Z,91.42
2018-03-16T01:41:16.318Z,91.61
2018-03-16T01:42:16.307Z,92.66
2018-03-16T01:43:16.286Z,92.09
2018-03-16T01:44:16.272Z,91.61
2018-03-16T01:45:16.259Z,91.71
2018-03-16T01:46:16.252Z,92.09
2018-03-16T01:47:16.233Z,92.37
2018-03-16T01:48:16.215Z,92.18
2018-03-16T01:49:16.202Z,92.09
2018-03-16T01:50:16.194Z,92.09
2018-03-16T01:51:16.170Z,92.47
2018-03-16T01:52:16.156Z,92.75
2018-03-16T01:53:16.138Z,92.09
2018-03-16T01:54:16.125Z,91.80
2018-03-16T01:55:16.117Z,92.18
2018-03-16T01:56:16.104Z,92.28
2018-03-16T01:57:16.086Z,93.13
2018-03-16T01:58:16.072Z,92.75
2018-03-16T01:59:16.053Z,93.41
2018-03-16T02:00:16.036Z,93.56
2018-03-16T02:01:16.023Z,93.94
2018-03-16T02:02:16.016Z,93.56
2018-03-16T02:03:15.991Z,94.03
2018-03-16T02:04:15.977Z,94.60
2018-03-16T02:05:15.962Z,94.32
2018-03-16T02:06:15.947Z,94.32
2018-03-16T02:07:15.938Z,94.79
2018-03-16T02:08:15.920Z,95.55
2018-03-16T02:09:15.904Z,95.36
2018-03-16T02:10:15.893Z,95.27
2018-03-16T02:11:15.871Z,95.46
2018-03-16T02:12:15.856Z,94.89
2018-03-16T02:13:15.843Z,95.27
2018-03-16T02:14:15.838Z,95.27
2018-03-16T02:15:15.812Z,95.65
2018-03-16T02:16:15.796Z,96.22
2018-03-16T02:17:15.790Z,96.12
2018-03-16T02:18:15.775Z,95.74
2018-03-16T02:19:15.760Z,95.46
2018-03-16T02:20:15.737Z,95.93
2018-03-16T02:21:15.730Z,96.31
2018-03-16T02:22:15.713Z,95.93
2018-03-16T02:23:15.692Z,96.31
2018-03-16T02:24:15.678Z,95.55
2018-03-16T02:25:15.662Z,95.84
2018-03-16T02:26:15.650Z,94.79
2018-03-16T02:27:15.630Z,94.79
2018-03-16T02:28:15.615Z,95.17
2018-03-16T02:29:15.601Z,95.36
2018-03-16T02:30:15.588Z,95.07
2018-03-16T02:31:15.576Z,95.17
2018-03-16T02:32:15.562Z,95.74
2018-03-16T02:33:15.552Z,95.84
2018-03-16T02:34:15.535Z,95.93
2018-03-16T02:35:15.510Z,96.22
2018-03-16T02:36:15.495Z,95.93
2018-03-16T02:37:15.481Z,96.22
2018-03-16T02:38:15.463Z,96.31
2018-03-16T02:39:15.447Z,96.78
2018-03-16T02:40:15.433Z,96.55
2018-03-16T02:41:15.416Z,97.12
2018-03-16T02:42:15.409Z,97.69
2018-03-16T02:43:15.393Z,98.16
2018-03-16T02:44:15.373Z,98.59
2018-03-16T02:45:15.361Z,98.59
2018-03-16T02:46:15.342Z,97.74
2018-03-16T02:47:15.325Z,98.11
2018-03-16T02:48:15.318Z,96.88
2018-03-16T02:49:15.294Z,97.31
2018-03-16T02:50:15.280Z,97.31
2018-03-16T02:51:15.265Z,97.50
2018-03-16T02:52:15.257Z,97.50
2018-03-16T02:53:15.234Z,98.35
2018-03-16T02:54:15.219Z,98.16
2018-03-16T02:55:15.201Z,98.82
2018-03-16T02:56:15.186Z,97.97
2018-03-16T02:57:15.181Z,99.01
2018-03-16T02:58:15.161Z,99.20
2018-03-16T02:59:15.141Z,98.92
2018-03-16T03:00:15.126Z,99.11
2018-03-16T03:01:15.117Z,98.54
2018-03-16T03:02:15.094Z,98.35
2018-03-16T03:03:15.081Z,98.25
2018-03-16T03:04:15.065Z,98.35
2018-03-16T03:05:15.051Z,98.35
2018-03-16T03:06:15.034Z,98.25
2018-03-16T03:07:15.017Z,98.35
2018-03-16T03:08:15.002Z,98.25
2018-03-16T03:09:14.985Z,98.54
2018-03-16T03:10:14.972Z,98.07
2018-03-16T03:11:14.954Z,98.35
2018-03-16T03:12:14.944Z,98.82
2018-03-16T03:13:14.927Z,98.35
2018-03-16T03:14:14.921Z,98.35
2018-03-16T03:15:14.892Z,98.82
2018-03-16T03:16:14.875Z,99.11
2018-03-16T03:17:14.860Z,99.01
2018-03-16T03:18:14.847Z,98.54
2018-03-16T03:19:14.830Z,98.82
2018-03-16T03:20:14.816Z,98.35
2018-03-16T03:21:14.798Z,98.54
2018-03-16T03:22:14.789Z,98.25
2018-03-16T03:23:14.769Z,98.44
2018-03-16T03:24:14.749Z,98.73
2018-03-16T03:25:14.734Z,98.54
2018-03-16T03:26:14.727Z,98.63
2018-03-16T03:27:14.707Z,98.73
2018-03-16T03:28:14.689Z,98.35
2018-03-16T03:29:14.672Z,97.40
2018-03-16T03:30:14.659Z,97.50
2018-03-16T03:31:14.641Z,97.50
2018-03-16T03:32:14.630Z,97.69
2018-03-16T03:33:14.617Z,97.31
2018-03-16T03:34:14.663Z,98.54
2018-03-16T03:35:14.578Z,99.01
2018-03-16T03:36:14.572Z,99.01
2018-03-16T03:37:14.554Z,98.68
2018-03-16T03:38:14.531Z,98.87
2018-03-16T03:39:14.522Z,99.34
2018-03-16T03:40:14.499Z,99.34
2018-03-16T03:41:14.490Z,99.44
2018-03-16T03:42:14.470Z,99.06
2018-03-16T03:43:14.458Z,99.87
2018-03-16T03:44:14.434Z,99.99
2018-03-16T03:45:14.418Z,99.99
2018-03-16T03:46:14.403Z,99.99
2018-03-16T03:47:14.407Z,99.87
2018-03-16T03:48:14.371Z,99.39
2018-03-16T03:49:14.356Z,99.20
2018-03-16T03:50:14.339Z,99.11
2018-03-16T03:51:14.323Z,99.20
2018-03-16T03:52:14.312Z,99.96
2018-03-16T03:53:14.292Z,99.99
2018-03-16T03:54:14.278Z,99.11
2018-03-16T03:55:14.265Z,97.97
2018-03-16T03:56:14.245Z,98.35
2018-03-16T03:57:14.234Z,98.54
2018-03-16T03:58:14.213Z,98.73
2018-03-16T03:59:14.200Z,98.92
2018-03-16T04:00:14.181Z,99.20
2018-03-16T04:01:14.172Z,99.11
2018-03-16T04:02:14.151Z,99.11
2018-03-16T04:03:14.134Z,99.01
2018-03-16T04:04:14.125Z,98.92
2018-03-16T04:05:14.102Z,98.92
2018-03-16T04:06:14.086Z,99.20
2018-03-16T04:07:14.076Z,99.01
2018-03-16T04:08:14.056Z,99.11
2018-03-16T04:09:14.043Z,99.30
2018-03-16T04:10:14.027Z,99.11
2018-03-16T04:11:14.012Z,99.20
2018-03-16T04:12:13.990Z,98.82
2018-03-16T04:13:13.981Z,98.73
2018-03-16T04:14:13.965Z,98.63
2018-03-16T04:15:13.943Z,98.44
2018-03-16T04:16:13.926Z,98.73
2018-03-16T04:17:13.912Z,98.35
2018-03-16T04:18:13.897Z,99.39
2018-03-16T04:19:13.885Z,99.39
2018-03-16T04:20:13.863Z,98.54
2018-03-16T04:21:13.851Z,98.92
2018-03-16T04:22:13.869Z,99.01
2018-03-16T04:23:13.821Z,99.20
2018-03-16T04:24:13.805Z,98.73
2018-03-16T04:25:13.789Z,98.21
2018-03-16T04:26:13.817Z,98.02
2018-03-16T04:27:13.841Z,97.64
2018-03-16T04:28:13.788Z,97.64
2018-03-16T04:29:13.807Z,97.17
2018-03-16T04:30:13.711Z,97.17
2018-03-16T04:31:13.697Z,96.12
2018-03-16T04:32:13.676Z,96.97
2018-03-16T04:33:13.661Z,96.97
2018-03-16T04:34:13.642Z,96.97
2018-03-16T04:35:13.627Z,97.26
2018-03-16T04:36:13.616Z,97.74
2018-03-16T04:37:13.595Z,97.55
2018-03-16T04:38:13.580Z,96.97
2018-03-16T04:39:13.562Z,97.45
2018-03-16T04:40:13.558Z,97.45
2018-03-16T04:41:13.534Z,97.17
2018-03-16T04:42:13.519Z,97.17
2018-03-16T04:43:13.503Z,96.97
2018-03-16T04:44:13.487Z,96.88
2018-03-16T04:45:13.479Z,96.97
2018-03-16T04:46:13.469Z,95.93
2018-03-16T04:47:13.445Z,96.31
2018-03-16T04:48:13.426Z,96.59
2018-03-16T04:49:13.410Z,96.88
2018-03-16T04:50:13.396Z,96.88
2018-03-16T04:51:13.387Z,96.59
2018-03-16T04:52:13.370Z,96.03
2018-03-16T04:53:13.349Z,96.41
2018-03-16T04:54:13.331Z,95.46
2018-03-16T04:55:13.316Z,96.31
2018-03-16T04:56:13.301Z,96.31
2018-03-16T04:57:13.313Z,96.31
2018-03-16T04:58:13.270Z,96.31
2018-03-16T04:59:13.259Z,96.12
2018-03-16T05:00:13.237Z,96.78
2018-03-16T05:01:13.221Z,97.17
2018-03-16T05:02:13.207Z,96.97
2018-03-16T05:03:13.193Z,97.17
2018-03-16T05:04:13.175Z,96.59
2018-03-16T05:05:13.160Z,96.50
2018-03-16T05:06:13.147Z,96.41
2018-03-16T05:07:13.128Z,96.97
2018-03-16T05:08:13.115Z,96.97
2018-03-16T05:09:13.107Z,96.69
2018-03-16T05:10:13.084Z,96.78
2018-03-16T05:11:13.068Z,97.07
2018-03-16T05:12:13.052Z,97.17
2018-03-16T05:13:13.036Z,96.78
2018-03-16T05:14:13.024Z,96.31
2018-03-16T05:15:13.005Z,96.22
2018-03-16T05:16:12.992Z,96.22
2018-03-16T05:17:12.977Z,96.31
2018-03-16T05:18:12.967Z,96.12
2018-03-16T05:19:12.952Z,96.31
2018-03-16T05:20:12.932Z,96.12
2018-03-16T05:21:12.913Z,95.84
2018-03-16T05:22:12.899Z,96.03
2018-03-16T05:23:12.883Z,96.88
2018-03-16T05:24:12.871Z,96.69
2018-03-16T05:25:12.852Z,96.59
2018-03-16T05:26:12.842Z,96.88
2018-03-16T05:27:12.821Z,96.97
2018-03-16T05:28:12.807Z,96.97
2018-03-16T05:29:12.796Z,96.97
2018-03-16T05:30:12.777Z,96.88
2018-03-16T05:31:12.762Z,96.69
2018-03-16T05:32:12.746Z,97.45
2018-03-16T05:33:12.738Z,96.69
2018-03-16T05:34:12.714Z,96.50
2018-03-16T05:35:12.698Z,97.17
2018-03-16T05:36:12.685Z,97.74
2018-03-16T05:37:12.676Z,97.17
2018-03-16T05:38:12.658Z,96.97
2018-03-16T05:39:12.637Z,97.17
2018-03-16T05:40:12.622Z,97.07
2018-03-16T05:41:12.607Z,97.17
2018-03-16T05:42:12.593Z,96.78
2018-03-16T05:43:12.577Z,96.97
2018-03-16T05:44:12.563Z,96.97
2018-03-16T05:45:12.549Z,96.22
2018-03-16T05:46:12.541Z,96.26
2018-03-16T05:47:12.518Z,95.70
2018-03-16T05:48:12.507Z,95.70
2018-03-16T05:49:12.487Z,95.22
2018-03-16T05:50:12.476Z,94.93
2018-03-16T05:51:12.463Z,95.03
2018-03-16T05:52:12.441Z,95.22
2018-03-16T05:53:12.426Z,94.93
2018-03-16T05:54:12.418Z,94.74
2018-03-16T05:55:12.402Z,95.12
2018-03-16T05:56:12.386Z,94.93
2018-03-16T05:57:12.374Z,94.46
2018-03-16T05:58:12.354Z,94.18
2018-03-16T05:59:12.343Z,94.46
2018-03-16T06:00:12.322Z,94.37
2018-03-16T06:01:12.308Z,94.37
2018-03-16T06:02:12.296Z,94.56
2018-03-16T06:03:12.276Z,94.08
2018-03-16T06:04:12.266Z,94.08
2018-03-16T06:05:12.248Z,93.32
2018-03-16T06:06:12.238Z,92.56
2018-03-16T06:07:12.217Z,93.32
2018-03-16T06:08:12.203Z,93.51
2018-03-16T06:09:12.194Z,93.89
2018-03-16T06:10:12.174Z,94.56
2018-03-16T06:11:12.157Z,93.80
2018-03-16T06:12:12.143Z,94.27
2018-03-16T06:13:12.133Z,94.65
2018-03-16T06:14:12.113Z,94.27
2018-03-16T06:15:12.106Z,94.37
2018-03-16T06:16:12.086Z,94.08
2018-03-16T06:17:12.069Z,94.46
2018-03-16T06:18:12.059Z,94.84
2018-03-16T06:19:12.046Z,93.99
2018-03-16T06:20:12.030Z,93.41
2018-03-16T06:21:12.008Z,93.70
2018-03-16T06:22:11.995Z,93.70
2018-03-16T06:23:11.979Z,94.08
2018-03-16T06:24:11.964Z,93.89
2018-03-16T06:25:11.950Z,94.08
2018-03-16T06:26:11.939Z,94.18
2018-03-16T06:27:11.922Z,93.23
2018-03-16T06:28:11.913Z,93.60
2018-03-16T06:29:11.898Z,93.80
2018-03-16T06:30:11.883Z,93.13
2018-03-16T06:31:11.861Z,93.04
2018-03-16T06:32:11.853Z,92.85
2018-03-16T06:33:11.842Z,92.94
2018-03-16T06:34:11.826Z,92.99
2018-03-16T06:35:11.802Z,92.47
2018-03-16T06:36:11.794Z,92.94
2018-03-16T06:37:11.772Z,92.71
2018-03-16T06:38:11.758Z,92.51
2018-03-16T06:39:11.742Z,92.28
2018-03-16T06:40:11.736Z,92.37
2018-03-16T06:41:11.715Z,92.23
2018-03-16T06:42:11.700Z,91.99
2018-03-16T06:43:11.687Z,91.75
2018-03-16T06:44:11.674Z,92.23
2018-03-16T06:45:11.658Z,92.13
2018-03-16T06:46:11.646Z,92.23
2018-03-16T06:47:11.634Z,92.13
2018-03-16T06:48:11.612Z,92.23
2018-03-16T06:49:11.596Z,92.23
2018-03-16T06:50:11.583Z,92.37
2018-03-16T06:51:11.567Z,92.13
2018-03-16T06:52:11.554Z,92.13
2018-03-16T06:53:11.547Z,92.42
2018-03-16T06:54:11.525Z,92.71
2018-03-16T06:55:11.512Z,91.94
2018-03-16T06:56:11.500Z,91.94
2018-03-16T06:57:11.484Z,91.85
2018-03-16T06:58:11.477Z,91.85
2018-03-16T06:59:11.457Z,91.94
2018-03-16T07:00:11.440Z,91.56
2018-03-16T07:01:11.424Z,91.56
2018-03-16T07:02:11.412Z,91.38
2018-03-16T07:03:11.394Z,90.99
2018-03-16T07:04:11.383Z,90.99
2018-03-16T07:05:11.366Z,90.23
2018-03-16T07:06:11.351Z,90.14
2018-03-16T07:07:11.337Z,90.61
2018-03-16T07:08:11.332Z,90.33
2018-03-16T07:09:11.310Z,90.23
2018-03-16T07:10:11.302Z,90.28
2018-03-16T07:11:11.287Z,90.23
2018-03-16T07:12:11.277Z,91.71
2018-03-16T07:13:11.265Z,90.28
2018-03-16T07:14:11.241Z,91.52
2018-03-16T07:15:11.224Z,89.90
2018-03-16T07:16:11.209Z,88.57
2018-03-16T07:17:11.195Z,89.52
2018-03-16T07:18:11.183Z,89.33
2018-03-16T07:19:11.171Z,88.57
2018-03-16T07:20:11.152Z,89.14
2018-03-16T07:21:11.143Z,89.52
2018-03-16T07:22:11.134Z,89.23
2018-03-16T07:23:11.131Z,88.76
2018-03-16T07:24:11.096Z,88.95
2018-03-16T07:25:11.084Z,89.23
2018-03-16T07:26:11.069Z,88.95
2018-03-16T07:27:11.062Z,88.19
2018-03-16T07:28:11.042Z,87.90
2018-03-16T07:29:11.026Z,87.28
2018-03-16T07:30:11.017Z,87.57
2018-03-16T07:31:11.005Z,87.28
2018-03-16T07:32:10.986Z,87.66
2018-03-16T07:33:10.972Z,87.19
2018-03-16T07:34:10.958Z,86.99
2018-03-16T07:35:10.989Z,87.85
2018-03-16T07:36:10.934Z,87.38
2018-03-16T07:37:10.951Z,86.52
2018-03-16T07:38:10.908Z,86.71
2018-03-16T07:39:10.889Z,86.61
2018-03-16T07:40:10.879Z,87.19
2018-03-16T07:41:10.866Z,86.43
2018-03-16T07:42:10.850Z,85.95
2018-03-16T07:43:10.835Z,85.86
2018-03-16T07:44:10.822Z,85.76
2018-03-16T07:45:10.814Z,85.38
2018-03-16T07:46:10.796Z,85.28
2018-03-16T07:47:10.780Z,86.52
2018-03-16T07:48:10.774Z,85.47
2018-03-16T07:49:10.755Z,85.86
2018-03-16T07:50:10.744Z,85.33
2018-03-16T07:51:10.732Z,85.04
2018-03-16T07:52:10.720Z,84.72
2018-03-16T07:53:10.713Z,85.24
2018-03-16T07:54:10.688Z,84.91
2018-03-16T07:55:10.677Z,85.57
2018-03-16T07:56:10.662Z,85.95
2018-03-16T07:57:10.648Z,85.28
2018-03-16T07:58:10.638Z,85.33
2018-03-16T07:59:10.627Z,85.42
2018-03-16T08:00:10.609Z,85.42
2018-03-16T08:01:10.603Z,85.61
2018-03-16T08:02:10.582Z,85.42
2018-03-16T08:03:10.575Z,86.18
2018-03-16T08:04:10.572Z,85.42
2018-03-16T08:05:10.546Z,84.85
2018-03-16T08:06:10.537Z,85.04
2018-03-16T08:07:10.521Z,85.04
2018-03-16T08:08:10.507Z,85.04
2018-03-16T08:09:10.494Z,84.38
2018-03-16T08:10:10.479Z,84.66
2018-03-16T08:11:10.467Z,84.28
2018-03-16T08:12:10.455Z,83.42
2018-03-16T08:13:10.440Z,83.52
2018-03-16T08:14:10.433Z,83.14
2018-03-16T08:15:10.472Z,83.23
2018-03-16T08:16:10.411Z,83.23
2018-03-16T08:17:10.394Z,84.00
2018-03-16T08:18:10.377Z,83.85
2018-03-16T08:19:10.362Z,83.65
2018-03-16T08:20:10.350Z,83.28
2018-03-16T08:21:10.339Z,83.47
2018-03-16T08:22:10.331Z,83.75
2018-03-16T08:23:10.320Z,82.61
2018-03-16T08:24:10.305Z,82.61
2018-03-16T08:25:10.287Z,83.28
2018-03-16T08:26:10.281Z,82.14
2018-03-16T08:27:10.261Z,82.32
2018-03-16T08:28:10.271Z,81.56
2018-03-16T08:29:10.238Z,81.47
2018-03-16T08:30:10.226Z,81.66
2018-03-16T08:31:10.212Z,81.47
2018-03-16T08:32:10.203Z,81.76
2018-03-16T08:33:10.197Z,82.08
2018-03-16T08:34:10.179Z,81.23
2018-03-16T08:35:10.162Z,80.94
2018-03-16T08:36:10.152Z,81.03
2018-03-16T08:37:10.140Z,81.13
2018-03-16T08:38:10.132Z,81.13
2018-03-16T08:39:10.130Z,81.23
2018-03-16T08:40:10.102Z,80.75
2018-03-16T08:41:10.097Z,80.27
2018-03-16T08:42:10.079Z,80.23
2018-03-16T08:43:10.065Z,81.41
2018-03-16T08:44:10.052Z,80.80
2018-03-16T08:45:10.042Z,80.61
2018-03-16T08:46:10.060Z,81.37
2018-03-16T08:47:10.019Z,81.47
2018-03-16T08:48:10.015Z,81.66
2018-03-16T08:49:09.994Z,81.56
2018-03-16T08:50:09.981Z,82.37
2018-03-16T08:51:09.982Z,82.46
2018-03-16T08:52:09.957Z,82.84
2018-03-16T08:53:09.957Z,82.46
2018-03-16T08:54:09.936Z,79.80
2018-03-16T08:55:09.929Z,80.55
2018-03-16T08:56:09.908Z,81.89
2018-03-16T08:57:09.895Z,80.27
2018-03-16T08:58:09.886Z,80.46
2018-03-16T08:59:09.877Z,79.99
2018-03-16T09:00:09.867Z,79.60
2018-03-16T09:01:09.852Z,80.08
2018-03-16T09:02:09.837Z,79.80
2018-03-16T09:03:09.829Z,79.60
2018-03-16T09:04:09.813Z,79.36
2018-03-16T09:05:09.800Z,78.31
2018-03-16T09:06:09.788Z,77.83
2018-03-16T09:07:09.787Z,78.31
2018-03-16T09:08:09.764Z,78.12
2018-03-16T09:09:09.754Z,78.22
2018-03-16T09:10:09.748Z,78.12
2018-03-16T09:11:09.736Z,78.03
2018-03-16T09:12:09.718Z,77.07
2018-03-16T09:13:09.707Z,77.36
2018-03-16T09:14:09.696Z,77.83
2018-03-16T09:15:09.683Z,78.41
2018-03-16T09:16:09.675Z,78.03
2018-03-16T09:17:09.661Z,78.22
2018-03-16T09:18:09.651Z,77.45
2018-03-16T09:19:09.637Z,77.26
2018-03-16T09:20:09.626Z,77.83
2018-03-16T09:21:09.622Z,77.78
2018-03-16T09:22:09.606Z,77.64
2018-03-16T09:23:09.591Z,76.73
2018-03-16T09:24:09.580Z,76.92
2018-03-16T09:25:09.571Z,77.69
2018-03-16T09:26:09.559Z,77.20
2018-03-16T09:27:09.549Z,77.40
2018-03-16T09:28:09.535Z,77.30
2018-03-16T09:29:09.524Z,77.11
2018-03-16T09:30:09.518Z,76.54
2018-03-16T09:31:09.504Z,76.25
2018-03-16T09:32:09.490Z,76.44
2018-03-16T09:33:09.479Z,75.87
2018-03-16T09:34:09.469Z,75.87
2018-03-16T09:35:09.457Z,75.68
2018-03-16T09:36:09.444Z,75.01
2018-03-16T09:37:09.433Z,75.40
2018-03-16T09:38:09.423Z,75.59
2018-03-16T09:39:09.418Z,74.35
2018-03-16T09:40:09.410Z,74.44
2018-03-16T09:41:09.397Z,75.01
2018-03-16T09:42:09.379Z,75.20
2018-03-16T09:43:09.372Z,75.59
2018-03-16T09:44:09.357Z,75.20
2018-03-16T09:45:09.350Z,74.92
2018-03-16T09:46:09.344Z,75.05
2018-03-16T09:47:09.326Z,74.54
2018-03-16T09:48:09.317Z,74.82
2018-03-16T09:49:09.311Z,74.16
2018-03-16T09:50:09.292Z,75.34
2018-03-16T09:51:09.290Z,74.86
2018-03-16T09:52:09.271Z,74.57
2018-03-16T09:53:09.260Z,74.48
2018-03-16T09:54:09.251Z,74.48
2018-03-16T09:55:09.238Z,74.06
2018-03-16T09:56:09.228Z,75.30
2018-03-16T09:57:09.220Z,75.30
2018-03-16T09:58:09.206Z,75.01
2018-03-16T09:59:09.202Z,76.39
2018-03-16T10:00:09.188Z,76.48
2018-03-16T10:01:09.175Z,77.53
2018-03-16T10:02:09.202Z,77.87
2018-03-16T10:03:09.154Z,77.34
2018-03-16T10:04:09.145Z,77.59
2018-03-16T10:05:09.141Z,78.96
2018-03-16T10:06:09.127Z,78.30
2018-03-16T10:07:09.111Z,78.44
2018-03-16T10:08:09.099Z,78.83
2018-03-16T10:09:09.097Z,79.40
2018-03-16T10:10:09.081Z,79.30
2018-03-16T10:11:09.073Z,78.39
2018-03-16T10:12:09.059Z,77.97
2018-03-16T10:13:09.047Z,78.64
2018-03-16T10:14:09.037Z,77.40
2018-03-16T10:15:09.025Z,77.69
2018-03-16T10:16:09.016Z,77.49
2018-03-16T10:17:09.005Z,77.97
2018-03-16T10:18:08.994Z,77.01
2018-03-16T10:19:08.984Z,76.67
2018-03-16T10:20:08.973Z,76.20
2018-03-16T10:21:08.962Z,75.34
2018-03-16T10:22:08.956Z,76.10
2018-03-16T10:23:08.942Z,75.34
2018-03-16T10:24:08.932Z,75.91
2018-03-16T10:25:08.920Z,76.39
2018-03-16T10:26:08.917Z,76.33
2018-03-16T10:27:08.899Z,75.57
2018-03-16T10:28:08.895Z,75.28
2018-03-16T10:29:08.879Z,74.52
2018-03-16T10:30:08.872Z,74.04
2018-03-16T10:31:08.916Z,74.13
2018-03-16T10:32:08.857Z,73.94
2018-03-16T10:33:08.839Z,72.80
2018-03-16T10:34:08.829Z,72.93
2018-03-16T10:35:08.818Z,72.42
2018-03-16T10:36:08.807Z,72.17
2018-03-16T10:37:08.827Z,72.07
2018-03-16T10:38:08.794Z,72.55
2018-03-16T10:39:08.784Z,72.36
2018-03-16T10:40:08.768Z,72.17
2018-03-16T10:41:08.765Z,71.94
2018-03-16T10:42:08.761Z,71.75
2018-03-16T10:43:08.744Z,71.50
2018-03-16T10:44:08.737Z,72.23
2018-03-16T10:45:08.724Z,71.56
2018-03-16T10:46:08.712Z,71.75
2018-03-16T10:47:08.709Z,72.13
2018-03-16T10:48:08.689Z,72.32
2018-03-16T10:49:08.681Z,72.42
2018-03-16T10:50:08.670Z,72.71
2018-03-16T10:51:08.660Z,72.03
2018-03-16T10:52:08.657Z,72.32
2018-03-16T10:53:08.643Z,72.23
2018-03-16T10:54:08.632Z,72.89
2018-03-16T10:55:08.620Z,71.94
2018-03-16T10:56:08.615Z,72.42
2018-03-16T10:57:08.605Z,71.94
2018-03-16T10:58:08.593Z,71.46
2018-03-16T10:59:08.582Z,71.56
2018-03-16T11:00:08.579Z,71.56
2018-03-16T11:01:08.565Z,71.66
2018-03-16T11:02:08.554Z,71.66
2018-03-16T11:03:08.544Z,71.27
2018-03-16T11:04:08.541Z,71.21
2018-03-16T11:05:08.532Z,71.12
2018-03-16T11:06:08.514Z,71.02
2018-03-16T11:07:08.508Z,71.21
2018-03-16T11:08:08.495Z,71.21
2018-03-16T11:09:08.496Z,71.41
2018-03-16T11:10:08.477Z,69.97
2018-03-16T11:11:08.474Z,69.97
2018-03-16T11:12:08.466Z,70.07
2018-03-16T11:13:08.449Z,69.05
2018-03-16T11:14:08.441Z,68.48
2018-03-16T11:15:08.428Z,67.91
2018-03-16T11:16:08.420Z,68.00
2018-03-16T11:17:08.411Z,68.57
2018-03-16T11:18:08.401Z,67.81
2018-03-16T11:19:08.395Z,66.66
2018-03-16T11:20:08.392Z,66.76
2018-03-16T11:21:08.381Z,66.56
2018-03-16T11:22:08.365Z,66.00
2018-03-16T11:23:08.357Z,65.42
2018-03-16T11:24:08.345Z,65.80
2018-03-16T11:25:08.336Z,64.94
2018-03-16T11:26:08.329Z,65.71
2018-03-16T11:27:08.327Z,65.45
2018-03-16T11:28:08.311Z,65.64
2018-03-16T11:29:08.303Z,64.78
2018-03-16T11:30:08.293Z,65.07
2018-03-16T11:31:08.280Z,64.69
2018-03-16T11:32:08.281Z,64.50
2018-03-16T11:33:08.267Z,64.22
2018-03-16T11:34:08.254Z,63.96
2018-03-16T11:35:08.247Z,64.69
2018-03-16T11:36:08.238Z,65.01
2018-03-16T11:37:08.229Z,63.48
2018-03-16T11:38:08.220Z,63.67
2018-03-16T11:39:08.217Z,63.57
2018-03-16T11:40:08.204Z,62.81
2018-03-16T11:41:08.200Z,61.57
2018-03-16T11:42:08.191Z,61.31
2018-03-16T11:43:08.179Z,61.57
2018-03-16T11:44:08.168Z,62.71
2018-03-16T11:45:08.163Z,61.66
2018-03-16T11:46:08.153Z,61.85
2018-03-16T11:47:08.145Z,61.66
2018-03-16T11:48:08.145Z,61.95
2018-03-16T11:49:08.137Z,62.43
2018-03-16T11:50:08.120Z,61.76
2018-03-16T11:51:08.112Z,61.85
2018-03-16T11:52:08.107Z,61.38
2018-03-16T11:53:08.101Z,62.04
2018-03-16T11:54:08.092Z,61.47
2018-03-16T11:55:08.082Z,62.43
2018-03-16T11:56:08.071Z,62.71
2018-03-16T11:57:08.066Z,62.90
2018-03-16T11:58:08.063Z,63.00
2018-03-16T11:59:08.052Z,62.24
2018-03-16T12:00:08.039Z,62.90
2018-03-16T12:01:08.031Z,62.24
2018-03-16T12:02:08.022Z,61.85
2018-03-16T12:03:08.014Z,61.47
2018-03-16T12:04:08.011Z,61.19
2018-03-16T12:05:08.000Z,61.66
2018-03-16T12:06:08.002Z,61.02
2018-03-16T12:07:07.985Z,60.83
2018-03-16T12:08:07.977Z,61.60
2018-03-16T12:09:07.967Z,61.60
2018-03-16T12:10:07.959Z,60.83
2018-03-16T12:11:07.956Z,60.64
2018-03-16T12:12:07.946Z,61.12
2018-03-16T12:13:07.937Z,61.02
2018-03-16T12:14:07.931Z,60.90
2018-03-16T12:15:07.921Z,61.76
2018-03-16T12:16:07.919Z,61.76
2018-03-16T12:17:07.904Z,63.39
2018-03-16T12:18:07.904Z,62.90
2018-03-16T12:19:07.889Z,62.78
2018-03-16T12:20:07.882Z,63.07
2018-03-16T12:21:07.876Z,63.45
2018-03-16T12:22:07.871Z,64.31
2018-03-16T12:23:07.857Z,64.69
2018-03-16T12:24:07.850Z,65.07
2018-03-16T12:25:07.843Z,64.59
2018-03-16T12:26:07.838Z,65.45
2018-03-16T12:27:07.826Z,65.36
2018-03-16T12:28:07.816Z,65.80
2018-03-16T12:29:07.811Z,66.19
2018-03-16T12:30:07.801Z,66.09
2018-03-16T12:31:07.797Z,66.09
2018-03-16T12:32:07.786Z,66.76
2018-03-16T12:33:07.783Z,67.52
2018-03-16T12:34:07.772Z,66.85
2018-03-16T12:35:07.758Z,66.47
2018-03-16T12:36:07.756Z,66.38
2018-03-16T12:37:07.747Z,66.09
2018-03-16T12:38:07.734Z,65.33
2018-03-16T12:39:07.723Z,66.19
2018-03-16T12:40:07.720Z,66.47
2018-03-16T12:41:07.706Z,66.28
2018-03-16T12:42:07.700Z,65.93
2018-03-16T12:43:07.691Z,65.07
2018-03-16T12:44:07.681Z,63.83
2018-03-16T12:45:07.685Z,65.17
2018-03-16T12:46:07.669Z,64.88
2018-03-16T12:47:07.662Z,65.55
2018-03-16T12:48:07.646Z,65.84
2018-03-16T12:49:07.639Z,64.69
2018-03-16T12:50:07.628Z,64.98
2018-03-16T12:51:07.626Z,64.59
2018-03-16T12:52:07.613Z,65.07